Time,TemperatureF,DewpointF,PressureIn,WindDirection,WindDirectionDegrees,WindSpeedMPH,WindSpeedGustMPH,Humidity,HourlyPrecipIn,Conditions,Clouds,dailyrainin,SoftwareType,DateUTC
2013-03-04 07:41:00,27.5,1.5,28.79,WSW,250,7.6,7.6,32,0.00,,FEW045,0.00,VWS V14.01,2013-03-04 12:41:00,
2013-03-04 07:42:00,27.5,1.5,28.79,West,260,5.4,7.6,32,0.00,,FEW045,0.00,VWS V14.01,2013-03-04 12:42:00,
2013-03-04 07:43:00,27.5,1.5,28.79,West,273,5.8,7.6,32,0.00,,FEW045,0.00,VWS V14.01,2013-03-04 12:43:00,
2013-03-04 07:48:00,27.9,1.8,28.79,WSW,251,7.6,7.6,32,0.00,,FEW045,0.00,VWS V14.01,2013-03-04 12:48:00,
2013-03-04 07:53:00,28.0,2.0,28.79,WNW,301,0.0,0.0,32,0.00,,FEW045,0.00,VWS V14.01,2013-03-04 12:53:00,
2013-03-04 07:58:00,28.2,2.2,28.82,West,267,2.7,2.7,32,0.00,,FEW045,0.00,VWS V14.01,2013-03-04 12:58:00,
2013-03-04 08:03:00,28.6,1.8,28.82,WSW,251,5.4,5.4,31,0.00,,FEW024,0.00,VWS V14.01,2013-03-04 13:03:00,
2013-03-04 08:08:00,28.6,1.8,28.82,NW,312,3.1,7.6,31,0.00,,FEW024,0.00,VWS V14.01,2013-03-04 13:08:00,
2013-03-04 08:13:00,28.8,2.0,28.82,WNW,286,0.0,0.0,31,0.00,,FEW024,0.00,VWS V14.01,2013-03-04 13:13:00,
2013-03-04 08:18:00,29.1,2.3,28.82,NNW,338,2.7,5.8,31,0.00,,FEW024,0.00,VWS V14.01,2013-03-04 13:18:00,
2013-03-04 08:23:00,29.3,2.4,28.82,West,266,5.8,5.8,31,0.00,,FEW024,0.00,VWS V14.01,2013-03-04 13:23:00,
2013-03-04 08:28:00,29.8,2.9,28.82,West,270,6.3,6.3,31,0.00,,FEW024,0.00,VWS V14.01,2013-03-04 13:28:00,
2013-03-04 08:33:00,30.2,3.2,28.82,WSW,244,8.3,8.3,31,0.00,,FEW024,0.00,VWS V14.01,2013-03-04 13:33:00,
2013-03-04 08:38:00,30.6,3.5,28.82,West,277,0.0,2.7,31,0.00,,FEW024,0.00,VWS V14.01,2013-03-04 13:38:00,
2013-03-04 08:43:00,30.6,2.8,28.82,SW,214,8.7,8.7,30,0.00,,FEW024,0.00,VWS V14.01,2013-03-04 13:43:00,
2013-03-04 08:48:00,31.1,3.3,28.82,West,271,2.7,3.6,30,0.00,,FEW024,0.00,VWS V14.01,2013-03-04 13:48:00,
2013-03-04 08:54:00,31.8,3.9,28.82,WSW,253,2.7,5.4,30,0.00,,FEW024,0.00,VWS V14.01,2013-03-04 13:54:00,
2013-03-04 08:59:00,32.2,4.2,28.82,WSW,238,5.4,5.4,30,0.00,,FEW024,0.00,VWS V14.01,2013-03-04 13:59:00,
2013-03-04 09:04:00,32.5,4.6,28.82,WSW,256,5.4,5.4,30,0.00,,CLR,0.00,VWS V14.01,2013-03-04 14:04:00,
2013-03-04 09:09:00,32.9,4.9,28.82,West,269,4.9,4.9,30,0.00,,CLR,0.00,VWS V14.01,2013-03-04 14:09:00,
2013-03-04 09:14:00,32.9,4.9,28.82,WSW,249,4.0,4.0,30,0.00,,CLR,0.00,VWS V14.01,2013-03-04 14:14:00,
2013-03-04 09:19:00,33.4,5.3,28.82,West,276,4.0,4.0,30,0.00,,CLR,0.00,VWS V14.01,2013-03-04 14:19:00,
2013-03-04 09:24:00,33.8,5.7,28.82,West,264,4.0,4.0,30,0.00,,CLR,0.00,VWS V14.01,2013-03-04 14:24:00,
2013-03-04 09:29:00,33.6,5.5,28.82,West,281,5.8,5.8,30,0.00,,CLR,0.00,VWS V14.01,2013-03-04 14:29:00,
2013-03-04 09:34:00,34.3,6.1,28.82,WNW,303,8.7,10.1,30,0.00,,CLR,0.00,VWS V14.01,2013-03-04 14:34:00,
2013-03-04 09:39:00,34.0,3.5,28.82,West,264,2.7,2.7,27,0.00,,CLR,0.00,VWS V14.01,2013-03-04 14:39:00,
2013-03-04 09:44:00,34.3,3.8,28.82,North,4,3.1,3.1,27,0.00,,CLR,0.00,VWS V14.01,2013-03-04 14:44:00,
2013-03-04 09:49:00,35.2,4.6,28.82,WNW,297,6.3,8.1,27,0.00,,CLR,0.00,VWS V14.01,2013-03-04 14:49:00,
2013-03-04 09:54:00,35.4,4.8,28.82,WSW,257,5.4,5.4,27,0.00,,CLR,0.00,VWS V14.01,2013-03-04 14:54:00,
2013-03-04 09:59:00,35.4,4.8,28.82,WNW,303,5.8,5.8,27,0.00,,CLR,0.00,VWS V14.01,2013-03-04 14:59:00,
2013-03-04 10:04:00,35.8,5.1,28.82,WNW,294,5.4,5.4,27,0.00,,CLR,0.00,VWS V14.01,2013-03-04 15:04:00,
2013-03-04 10:09:00,36.3,5.6,28.82,NW,305,11.0,11.0,27,0.00,,CLR,0.00,VWS V14.01,2013-03-04 15:09:00,
2013-03-04 10:14:00,37.2,6.3,28.82,West,261,5.4,6.3,27,0.00,,CLR,0.00,VWS V14.01,2013-03-04 15:14:00,
2013-03-04 10:19:00,37.4,3.9,28.82,WNW,296,3.6,4.0,24,0.00,,CLR,0.00,VWS V14.01,2013-03-04 15:19:00,
2013-03-04 10:25:00,37.4,3.9,28.82,West,278,6.3,6.3,24,0.00,,CLR,0.00,VWS V14.01,2013-03-04 15:25:00,
2013-03-04 10:30:00,38.1,4.5,28.82,West,272,3.6,5.8,24,0.00,,CLR,0.00,VWS V14.01,2013-03-04 15:30:00,
2013-03-04 10:35:00,38.5,4.8,28.82,SW,220,4.0,4.0,24,0.00,,CLR,0.00,VWS V14.01,2013-03-04 15:35:00,
2013-03-04 10:40:00,38.3,4.7,28.82,West,272,8.3,8.3,24,0.00,,CLR,0.00,VWS V14.01,2013-03-04 15:40:00,
2013-03-04 10:45:00,39.0,5.3,28.82,WSW,239,3.6,7.6,24,0.00,,CLR,0.00,VWS V14.01,2013-03-04 15:45:00,
2013-03-04 10:50:00,39.4,4.7,28.82,West,268,5.8,5.8,23,0.00,,CLR,0.00,VWS V14.01,2013-03-04 15:50:00,
2013-03-04 10:55:00,39.2,2.6,28.82,WSW,237,3.6,8.7,21,0.00,,CLR,0.00,VWS V14.01,2013-03-04 15:55:00,
2013-03-04 11:00:00,40.1,5.3,28.82,West,276,8.3,11.0,23,0.00,,CLR,0.00,VWS V14.01,2013-03-04 16:00:00,
2013-03-04 11:05:00,39.6,2.9,28.82,WSW,254,6.3,6.3,21,0.00,,CLR,0.00,VWS V14.01,2013-03-04 16:05:00,
2013-03-04 11:10:00,39.2,2.6,28.82,NNW,330,7.2,7.2,21,0.00,,CLR,0.00,VWS V14.01,2013-03-04 16:10:00,
2013-03-04 11:15:00,40.5,3.6,28.82,West,260,5.8,6.3,21,0.00,,CLR,0.00,VWS V14.01,2013-03-04 16:15:00,
2013-03-04 11:20:00,41.2,4.2,28.82,West,279,2.7,4.9,21,0.00,,CLR,0.00,VWS V14.01,2013-03-04 16:20:00,
2013-03-04 11:25:00,41.0,4.1,28.82,WSW,256,3.6,5.4,21,0.00,,CLR,0.00,VWS V14.01,2013-03-04 16:25:00,
2013-03-04 11:30:00,41.7,4.7,28.82,NW,316,6.3,6.3,21,0.00,,CLR,0.00,VWS V14.01,2013-03-04 16:30:00,
2013-03-04 11:35:00,42.3,5.1,28.82,WSW,252,3.1,3.1,21,0.00,,CLR,0.00,VWS V14.01,2013-03-04 16:35:00,
2013-03-04 11:40:00,42.6,5.4,28.79,West,272,4.9,4.9,21,0.00,,CLR,0.00,VWS V14.01,2013-03-04 16:40:00,
2013-03-04 11:45:00,41.9,4.8,28.79,West,274,10.5,10.5,21,0.00,,CLR,0.00,VWS V14.01,2013-03-04 16:45:00,
2013-03-04 11:50:00,42.4,5.3,28.79,North,8,3.1,3.1,21,0.00,,CLR,0.00,VWS V14.01,2013-03-04 16:50:00,
2013-03-04 11:55:00,42.1,5.0,28.79,West,271,5.8,5.8,21,0.00,,CLR,0.00,VWS V14.01,2013-03-04 16:55:00,
2013-03-04 12:00:00,42.8,4.5,28.79,WNW,297,4.9,4.9,20,0.00,,CLR,0.00,VWS V14.01,2013-03-04 17:00:00,
2013-03-04 12:05:00,42.4,5.3,28.79,SW,214,8.1,8.1,21,0.00,,CLR,0.00,VWS V14.01,2013-03-04 17:05:00,
2013-03-04 12:10:00,43.5,5.1,28.79,WSW,248,4.9,4.9,20,0.00,,CLR,0.00,VWS V14.01,2013-03-04 17:10:00,
2013-03-04 12:15:00,43.7,5.3,28.79,WNW,285,4.9,4.9,20,0.00,,CLR,0.00,VWS V14.01,2013-03-04 17:15:00,
2013-03-04 12:20:00,43.9,5.4,28.79,WSW,253,4.0,4.0,20,0.00,,CLR,0.00,VWS V14.01,2013-03-04 17:20:00,
2013-03-04 12:25:00,43.7,5.3,28.79,SW,226,6.3,6.3,20,0.00,,CLR,0.00,VWS V14.01,2013-03-04 17:25:00,
2013-03-04 12:30:00,44.8,6.2,28.79,WSW,256,5.4,5.4,20,0.00,,CLR,0.00,VWS V14.01,2013-03-04 17:30:00,
2013-03-04 12:35:00,43.9,5.4,28.79,NW,311,5.8,6.3,20,0.00,,CLR,0.00,VWS V14.01,2013-03-04 17:35:00,
2013-03-04 12:40:00,44.1,5.6,28.79,WSW,244,5.8,5.8,20,0.00,,CLR,0.00,VWS V14.01,2013-03-04 17:40:00,
2013-03-04 12:45:00,45.1,6.5,28.79,WNW,283,6.3,6.3,20,0.00,,CLR,0.00,VWS V14.01,2013-03-04 17:45:00,
2013-03-04 12:50:00,45.3,6.6,28.79,West,272,5.4,5.4,20,0.00,,CLR,0.00,VWS V14.01,2013-03-04 17:50:00,
2013-03-04 12:55:00,44.8,6.2,28.79,SW,233,7.6,10.1,20,0.00,,CLR,0.00,VWS V14.01,2013-03-04 17:55:00,
2013-03-04 13:00:00,45.9,7.1,28.79,WSW,246,5.4,5.4,20,0.00,,CLR,0.00,VWS V14.01,2013-03-04 18:00:00,
2013-03-04 13:06:00,46.0,7.2,28.79,NW,308,3.1,3.1,20,0.00,,CLR,0.00,VWS V14.01,2013-03-04 18:06:00,
2013-03-04 13:11:00,46.0,7.2,28.79,WSW,252,12.3,12.3,20,0.00,,CLR,0.00,VWS V14.01,2013-03-04 18:11:00,
2013-03-04 13:16:00,46.6,6.5,28.79,NW,314,6.3,6.3,19,0.00,,CLR,0.00,VWS V14.01,2013-03-04 18:16:00,
2013-03-04 13:21:00,46.6,6.5,28.79,NNW,334,2.7,5.4,19,0.00,,CLR,0.00,VWS V14.01,2013-03-04 18:21:00,
2013-03-04 13:26:00,46.4,6.4,28.76,NNW,334,3.1,3.6,19,0.00,,CLR,0.00,VWS V14.01,2013-03-04 18:26:00,
2013-03-04 13:29:00,46.4,6.4,28.76,NNW,333,3.1,3.6,19,0.00,,CLR,0.00,VWS V14.01,2013-03-04 18:29:00,
2013-03-04 13:30:00,46.4,6.4,28.76,NNW,333,3.1,3.6,19,0.00,,CLR,0.00,VWS V14.01,2013-03-04 18:30:00,
2013-03-04 13:33:00,46.6,6.5,28.76,West,265,5.4,5.4,19,0.00,,CLR,0.00,VWS V14.01,2013-03-04 18:33:00,
2013-03-04 13:38:00,47.1,7.0,28.76,WSW,240,5.8,5.8,19,0.00,,CLR,0.00,VWS V14.01,2013-03-04 18:38:00,
2013-03-04 13:43:00,47.8,7.6,28.76,North,353,5.4,5.4,19,0.00,,CLR,0.00,VWS V14.01,2013-03-04 18:43:00,
2013-03-04 13:48:00,48.9,8.5,28.76,SW,228,2.7,2.7,19,0.00,,CLR,0.00,VWS V14.01,2013-03-04 18:48:00,
2013-03-04 13:53:00,48.6,8.2,28.76,SW,222,3.1,4.0,19,0.00,,CLR,0.00,VWS V14.01,2013-03-04 18:53:00,
2013-03-04 13:58:00,48.7,8.3,28.76,South,189,2.2,2.7,19,0.00,,CLR,0.00,VWS V14.01,2013-03-04 18:58:00,
2013-03-04 14:03:00,48.6,8.2,28.76,NNW,343,4.0,4.0,19,0.00,,CLR,0.00,VWS V14.01,2013-03-04 19:03:00,
2013-03-04 14:08:00,48.0,5.3,28.76,WNW,296,5.4,5.4,17,0.00,,CLR,0.00,VWS V14.01,2013-03-04 19:08:00,
2013-03-04 14:13:00,48.0,7.7,28.76,WSW,258,3.1,3.6,19,0.00,,CLR,0.00,VWS V14.01,2013-03-04 19:13:00,
2013-03-04 14:18:00,48.7,8.3,28.76,WNW,299,4.0,4.0,19,0.00,,CLR,0.00,VWS V14.01,2013-03-04 19:18:00,
2013-03-04 14:23:00,47.8,7.6,28.73,SW,235,5.4,8.3,19,0.00,,CLR,0.00,VWS V14.01,2013-03-04 19:23:00,
2013-03-04 14:28:00,50.0,9.4,28.73,SW,232,4.0,4.0,19,0.00,,CLR,0.00,VWS V14.01,2013-03-04 19:28:00,
2013-03-04 14:33:00,48.7,8.3,28.73,WSW,249,4.9,8.7,19,0.00,,CLR,0.00,VWS V14.01,2013-03-04 19:33:00,
2013-03-04 14:38:00,48.7,8.3,28.73,WSW,254,3.6,3.6,19,0.00,,CLR,0.00,VWS V14.01,2013-03-04 19:38:00,
2013-03-04 14:44:00,48.7,8.3,28.73,West,260,3.1,5.4,19,0.00,,CLR,0.00,VWS V14.01,2013-03-04 19:44:00,
2013-03-04 14:49:00,48.0,7.7,28.73,SW,232,5.4,5.4,19,0.00,,CLR,0.00,VWS V14.01,2013-03-04 19:49:00,
2013-03-04 14:54:00,48.6,8.2,28.73,West,277,5.4,5.4,19,0.00,,CLR,0.00,VWS V14.01,2013-03-04 19:54:00,
2013-03-04 14:59:00,48.6,8.2,28.73,WSW,241,3.1,3.1,19,0.00,,CLR,0.00,VWS V14.01,2013-03-04 19:59:00,
2013-03-04 15:04:00,49.8,9.2,28.73,WSW,246,0.0,6.3,19,0.00,,CLR,0.00,VWS V14.01,2013-03-04 20:04:00,
2013-03-04 15:09:00,50.0,9.4,28.73,SW,223,4.0,4.0,19,0.00,,CLR,0.00,VWS V14.01,2013-03-04 20:09:00,
2013-03-04 15:14:00,50.4,9.7,28.73,West,273,3.6,3.6,19,0.00,,CLR,0.00,VWS V14.01,2013-03-04 20:14:00,
2013-03-04 15:19:00,50.0,9.4,28.73,West,266,8.1,8.1,19,0.00,,CLR,0.00,VWS V14.01,2013-03-04 20:19:00,
2013-03-04 15:24:00,50.0,9.4,28.73,WSW,248,5.4,5.4,19,0.00,,CLR,0.00,VWS V14.01,2013-03-04 20:24:00,
2013-03-04 15:29:00,50.5,9.8,28.73,WSW,241,3.6,3.6,19,0.00,,CLR,0.00,VWS V14.01,2013-03-04 20:29:00,
2013-03-04 15:34:00,50.2,9.5,28.73,SW,234,4.5,4.5,19,0.00,,CLR,0.00,VWS V14.01,2013-03-04 20:34:00,
2013-03-04 15:39:00,50.0,9.4,28.73,West,264,4.9,4.9,19,0.00,,CLR,0.00,VWS V14.01,2013-03-04 20:39:00,
2013-03-04 15:44:00,49.3,8.8,28.73,South,189,6.3,6.3,19,0.00,,CLR,0.00,VWS V14.01,2013-03-04 20:44:00,
2013-03-04 15:49:00,50.0,9.4,28.73,West,277,8.3,8.3,19,0.00,,CLR,0.00,VWS V14.01,2013-03-04 20:49:00,
2013-03-04 15:54:00,50.2,9.5,28.73,WSW,246,6.3,6.3,19,0.00,,CLR,0.00,VWS V14.01,2013-03-04 20:54:00,
2013-03-04 15:59:00,51.3,6.6,28.73,NW,308,2.2,2.7,16,0.00,,CLR,0.00,VWS V14.01,2013-03-04 20:59:00,
2013-03-04 16:04:00,51.3,6.6,28.73,South,190,2.7,3.1,16,0.00,,CLR,0.00,VWS V14.01,2013-03-04 21:04:00,
2013-03-04 16:09:00,51.6,10.7,28.73,West,264,2.7,2.7,19,0.00,,CLR,0.00,VWS V14.01,2013-03-04 21:09:00,
2013-03-04 16:14:00,51.6,6.9,28.73,West,281,5.4,5.4,16,0.00,,CLR,0.00,VWS V14.01,2013-03-04 21:14:00,
2013-03-04 16:19:00,50.9,6.3,28.73,West,261,4.0,4.0,16,0.00,,CLR,0.00,VWS V14.01,2013-03-04 21:19:00,
2013-03-04 16:24:00,50.7,6.2,28.73,NNW,344,2.7,2.7,16,0.00,,CLR,0.00,VWS V14.01,2013-03-04 21:24:00,
2013-03-04 16:29:00,50.7,6.2,28.73,NW,310,5.4,5.4,16,0.00,,CLR,0.00,VWS V14.01,2013-03-04 21:29:00,
2013-03-04 16:35:00,50.9,6.3,28.73,West,267,2.7,2.7,16,0.00,,CLR,0.00,VWS V14.01,2013-03-04 21:35:00,
2013-03-04 16:40:00,50.9,6.3,28.73,WNW,299,3.6,3.6,16,0.00,,CLR,0.00,VWS V14.01,2013-03-04 21:40:00,
2013-03-04 16:45:00,50.2,5.7,28.73,WNW,299,3.6,3.6,16,0.00,,CLR,0.00,VWS V14.01,2013-03-04 21:45:00,
2013-03-04 16:50:00,50.0,5.6,28.73,WNW,288,3.6,3.6,16,0.00,,CLR,0.00,VWS V14.01,2013-03-04 21:50:00,
2013-03-04 16:55:00,49.6,5.3,28.73,SW,232,4.0,4.0,16,0.00,,CLR,0.00,VWS V14.01,2013-03-04 21:55:00,
2013-03-04 17:00:00,49.3,5.0,28.73,West,275,4.0,4.0,16,0.00,,CLR,0.00,VWS V14.01,2013-03-04 22:00:00,
2013-03-04 17:05:00,49.3,5.0,28.73,WSW,256,3.1,3.1,16,0.00,,CLR,0.00,VWS V14.01,2013-03-04 22:05:00,
2013-03-04 17:10:00,49.1,4.9,28.73,SW,221,4.0,4.0,16,0.00,,CLR,0.00,VWS V14.01,2013-03-04 22:10:00,
2013-03-04 17:15:00,49.1,4.9,28.73,SW,221,4.0,4.0,16,0.00,,CLR,0.00,VWS V14.01,2013-03-04 22:15:00,
2013-03-04 17:20:00,48.7,4.6,28.73,SW,231,3.6,3.6,16,0.00,,CLR,0.00,VWS V14.01,2013-03-04 22:20:00,
2013-03-04 17:25:00,48.4,4.3,28.76,SW,231,3.6,3.6,16,0.00,,CLR,0.00,VWS V14.01,2013-03-04 22:25:00,
2013-03-04 17:30:00,47.8,5.2,28.76,SW,224,7.6,7.6,17,0.00,,CLR,0.00,VWS V14.01,2013-03-04 22:30:00,
2013-03-04 17:35:00,47.5,4.8,28.76,WSW,247,8.1,8.1,17,0.00,,CLR,0.00,VWS V14.01,2013-03-04 22:35:00,
2013-03-04 17:40:00,47.1,4.6,28.76,SW,231,4.9,8.1,17,0.00,,CLR,0.00,VWS V14.01,2013-03-04 22:40:00,
2013-03-04 17:45:00,46.9,4.4,28.76,West,266,3.1,3.1,17,0.00,,CLR,0.00,VWS V14.01,2013-03-04 22:45:00,
2013-03-04 17:50:00,46.2,3.8,28.76,SW,228,2.7,2.7,17,0.00,,CLR,0.00,VWS V14.01,2013-03-04 22:50:00,
2013-03-04 17:55:00,45.5,3.2,28.76,SW,236,3.1,3.1,17,0.00,,CLR,0.00,VWS V14.01,2013-03-04 22:55:00,
2013-03-04 18:00:00,45.3,3.1,28.76,WSW,239,4.0,4.0,17,0.00,,CLR,0.00,VWS V14.01,2013-03-04 23:00:00,
2013-03-04 18:05:00,45.1,2.9,28.76,SW,236,3.6,3.6,17,0.00,,CLR,0.00,VWS V14.01,2013-03-04 23:05:00,
2013-03-04 18:10:00,45.0,2.8,28.76,SW,225,4.5,4.5,17,0.00,,CLR,0.00,VWS V14.01,2013-03-04 23:10:00,
2013-03-04 18:15:00,44.8,2.6,28.76,WSW,247,3.6,3.6,17,0.00,,CLR,0.00,VWS V14.01,2013-03-04 23:15:00,
2013-03-04 18:21:00,44.6,2.5,28.76,WSW,241,5.4,5.4,17,0.00,,CLR,0.00,VWS V14.01,2013-03-04 23:21:00,
2013-03-04 18:26:00,44.6,2.5,28.76,SW,224,6.3,6.3,17,0.00,,CLR,0.00,VWS V14.01,2013-03-04 23:26:00,
2013-03-04 18:31:00,44.6,2.5,28.76,WSW,244,4.0,4.0,17,0.00,,CLR,0.00,VWS V14.01,2013-03-04 23:31:00,
2013-03-04 18:36:00,44.2,3.4,28.76,WSW,238,4.0,6.3,18,0.00,,CLR,0.00,VWS V14.01,2013-03-04 23:36:00,
2013-03-04 18:41:00,43.9,3.1,28.76,SW,226,5.4,5.4,18,0.00,,CLR,0.00,VWS V14.01,2013-03-04 23:41:00,
2013-03-04 18:46:00,43.7,3.0,28.76,West,272,4.0,4.0,18,0.00,,CLR,0.00,VWS V14.01,2013-03-04 23:46:00,
2013-03-04 18:51:00,43.5,2.8,28.76,West,279,3.6,3.6,18,0.00,,CLR,0.00,VWS V14.01,2013-03-04 23:51:00,
2013-03-04 18:56:00,43.3,2.7,28.76,West,266,2.2,3.6,18,0.00,,CLR,0.00,VWS V14.01,2013-03-04 23:56:00,
2013-03-04 19:01:00,42.8,2.2,28.76,West,265,3.1,3.1,18,0.00,,CLR,0.00,VWS V14.01,2013-03-05 00:01:00,
2013-03-04 19:06:00,42.8,2.2,28.76,West,269,3.6,4.9,18,0.00,,CLR,0.00,VWS V14.01,2013-03-05 00:06:00,
2013-03-04 19:11:00,42.6,2.1,28.79,West,265,2.7,2.7,18,0.00,,CLR,0.00,VWS V14.01,2013-03-05 00:11:00,
2013-03-04 19:16:00,42.4,1.9,28.79,WSW,240,3.6,3.6,18,0.00,,CLR,0.00,VWS V14.01,2013-03-05 00:16:00,
2013-03-04 19:21:00,42.3,1.8,28.79,West,263,3.1,3.1,18,0.00,,CLR,0.00,VWS V14.01,2013-03-05 00:21:00,
2013-03-04 19:26:00,42.4,1.9,28.79,West,275,4.0,4.0,18,0.00,,CLR,0.00,VWS V14.01,2013-03-05 00:26:00,
2013-03-04 19:31:00,42.3,1.8,28.79,WSW,238,2.7,2.7,18,0.00,,CLR,0.00,VWS V14.01,2013-03-05 00:31:00,
2013-03-04 19:36:00,41.9,1.5,28.79,West,268,3.6,3.6,18,0.00,,CLR,0.00,VWS V14.01,2013-03-05 00:36:00,
2013-03-04 19:41:00,41.7,1.4,28.79,WSW,237,2.7,2.7,18,0.00,,CLR,0.00,VWS V14.01,2013-03-05 00:41:00,
2013-03-04 19:46:00,41.5,1.2,28.79,SW,232,2.7,2.7,18,0.00,,CLR,0.00,VWS V14.01,2013-03-05 00:46:00,
2013-03-04 19:51:00,41.4,1.0,28.79,SW,232,0.0,0.0,18,0.00,,CLR,0.00,VWS V14.01,2013-03-05 00:51:00,
2013-03-04 19:56:00,40.8,0.6,28.79,SW,218,2.7,2.7,18,0.00,,CLR,0.00,VWS V14.01,2013-03-05 00:56:00,
2013-03-04 20:01:00,40.6,0.5,28.79,SW,218,0.0,0.0,18,0.00,,CLR,0.00,VWS V14.01,2013-03-05 01:01:00,
2013-03-04 20:06:00,40.5,0.3,28.79,WSW,246,2.2,2.7,18,0.00,,CLR,0.00,VWS V14.01,2013-03-05 01:06:00,
2013-03-04 20:11:00,39.7,-0.3,28.79,WSW,246,0.0,0.0,18,0.00,,CLR,0.00,VWS V14.01,2013-03-05 01:11:00,
2013-03-04 20:16:00,39.4,-0.6,28.79,WSW,246,0.0,0.0,18,0.00,,CLR,0.00,VWS V14.01,2013-03-05 01:16:00,
2013-03-04 20:21:00,38.8,0.1,28.79,WSW,246,0.0,0.0,19,0.00,,CLR,0.00,VWS V14.01,2013-03-05 01:21:00,
2013-03-04 20:26:00,38.7,0.0,28.79,WSW,246,0.0,0.0,19,0.00,,CLR,0.00,VWS V14.01,2013-03-05 01:26:00,
2013-03-04 20:31:00,38.1,-0.5,28.79,WSW,246,0.0,0.0,19,0.00,,CLR,0.00,VWS V14.01,2013-03-05 01:31:00,
2013-03-04 20:36:00,37.9,-0.6,28.79,West,267,0.0,0.0,19,0.00,,CLR,0.00,VWS V14.01,2013-03-05 01:36:00,
2013-03-04 20:41:00,37.6,-0.9,28.79,West,267,0.0,0.0,19,0.00,,CLR,0.00,VWS V14.01,2013-03-05 01:41:00,
2013-03-04 20:46:00,38.1,-0.5,28.79,West,270,0.0,0.0,19,0.00,,CLR,0.00,VWS V14.01,2013-03-05 01:46:00,
2013-03-04 20:51:00,37.2,1.9,28.79,WNW,284,2.7,3.6,22,0.00,,CLR,0.00,VWS V14.01,2013-03-05 01:51:00,
2013-03-04 20:56:00,37.4,-1.1,28.79,West,268,2.2,3.1,19,0.00,,CLR,0.00,VWS V14.01,2013-03-05 01:56:00,
2013-03-04 21:01:00,37.6,-0.9,28.79,WSW,242,3.1,3.1,19,0.00,,CLR,0.00,VWS V14.01,2013-03-05 02:01:00,
2013-03-04 21:06:00,37.6,1.2,28.79,WSW,240,2.2,4.0,21,0.00,,CLR,0.00,VWS V14.01,2013-03-05 02:06:00,
2013-03-04 21:11:00,37.6,1.2,28.79,NNE,15,3.6,3.6,21,0.00,,CLR,0.00,VWS V14.01,2013-03-05 02:11:00,
2013-03-04 21:16:00,37.2,1.9,28.79,West,276,0.0,0.0,22,0.00,,CLR,0.00,VWS V14.01,2013-03-05 02:16:00,
2013-03-04 21:21:00,37.0,1.7,28.79,WNW,287,0.0,0.0,22,0.00,,CLR,0.00,VWS V14.01,2013-03-05 02:21:00,
2013-03-04 21:26:00,36.7,1.4,28.79,WSW,253,0.0,0.0,22,0.00,,CLR,0.00,VWS V14.01,2013-03-05 02:26:00,
2013-03-04 21:31:00,35.4,0.4,28.79,SW,235,0.0,0.0,22,0.00,,CLR,0.00,VWS V14.01,2013-03-05 02:31:00,
2013-03-04 21:36:00,34.3,2.2,28.79,SW,235,0.0,0.0,25,0.00,,CLR,0.00,VWS V14.01,2013-03-05 02:36:00,
2013-03-04 21:41:00,33.8,1.7,28.79,SW,235,0.0,0.0,25,0.00,,CLR,0.00,VWS V14.01,2013-03-05 02:41:00,
2013-03-04 21:46:00,33.8,3.4,28.79,West,273,0.0,0.0,27,0.00,,CLR,0.00,VWS V14.01,2013-03-05 02:46:00,
2013-03-04 21:51:00,33.8,3.4,28.79,West,277,0.0,0.0,27,0.00,,CLR,0.00,VWS V14.01,2013-03-05 02:51:00,
2013-03-04 21:56:00,33.3,3.7,28.79,South,177,2.7,2.7,28,0.00,,CLR,0.00,VWS V14.01,2013-03-05 02:56:00,
2013-03-04 22:01:00,32.9,4.9,28.79,WNW,283,0.0,0.0,30,0.00,,CLR,0.00,VWS V14.01,2013-03-05 03:01:00,
2013-03-04 22:06:00,32.2,4.2,28.79,NNE,20,2.7,2.7,30,0.00,,CLR,0.00,VWS V14.01,2013-03-05 03:06:00,
2013-03-04 22:11:00,32.0,4.1,28.79,NE,51,0.0,0.0,30,0.00,,CLR,0.00,VWS V14.01,2013-03-05 03:11:00,
2013-03-04 22:16:00,32.0,4.1,28.79,NE,56,0.0,0.0,30,0.00,,CLR,0.00,VWS V14.01,2013-03-05 03:16:00,
2013-03-04 22:21:00,32.0,4.1,28.79,NE,56,0.0,0.0,30,0.00,,CLR,0.00,VWS V14.01,2013-03-05 03:21:00,
2013-03-04 22:26:00,32.0,4.1,28.79,NE,56,0.0,0.0,30,0.00,,CLR,0.00,VWS V14.01,2013-03-05 03:26:00,
2013-03-04 22:31:00,32.0,4.1,28.79,NE,56,0.0,0.0,30,0.00,,CLR,0.00,VWS V14.01,2013-03-05 03:31:00,
2013-03-04 22:36:00,32.0,4.1,28.79,NE,56,0.0,0.0,30,0.00,,CLR,0.00,VWS V14.01,2013-03-05 03:36:00,
2013-03-04 22:41:00,32.0,4.1,28.79,NE,56,0.0,0.0,30,0.00,,CLR,0.00,VWS V14.01,2013-03-05 03:41:00,
2013-03-04 22:47:00,31.8,4.6,28.79,NE,56,0.0,0.0,31,0.00,,CLR,0.00,VWS V14.01,2013-03-05 03:47:00,
2013-03-04 22:52:00,32.0,4.8,28.79,NE,56,0.0,0.0,31,0.00,,CLR,0.00,VWS V14.01,2013-03-05 03:52:00,
2013-03-04 22:57:00,31.8,4.6,28.79,NE,56,0.0,0.0,31,0.00,,CLR,0.00,VWS V14.01,2013-03-05 03:57:00,